KNUW

Naval Air Station Whidbey Island

Airport
ICAO code
KNUW
Summary
ICAO Region
NAM
ICAO Territory
Location

Oak Harbour, Washington,

Coordinates
48° 20' 43" N , 122° 40' 11" W
KCC
Airport BS
Bird Strike
Metar
Observation
KNUW 211353Z 25008KT 6SM BR FEW006 SCT013 OVC021 08/07 A2986 RMK AO2 RAE04 SLP114 P0001 T00780067 VISNO $
Station
Whidbey Island, Naval Air Station
Date/Time
2023-03-21 13:53:00
Wind direction
250°
Wind speed
08 kts
Lowest cloud amount
few clouds
Temperature
7.8°C
Dew point
6.7°C
Humidity
92%
Weather condition
mist

Description

Naval Air Station Whidbey Island or NAS Whidbey Island, also referred to as Ault Field, is a naval air station located near Oak Harbor, on Whidbey Island, in Island County, Washington.

Climatology

Temperate Marine climate/Oceanic climate (Köppen climate classification Cfb). Moderately cool summer and comparatively warm winter.

Runways

Designator Length Width Surface Rops
7/25 2438 61 CON Yes/Yes
14/32 2439 61 CONC Yes/Yes

Airport map

Aerial View

SKYbrary Partners:

Safety knowledge contributed by: